sensor_id;sensor_type;location;lat;lon;timestamp;P1;durP1;ratioP1;P2;durP2;ratioP2
69542;SDS011;56762;49.494;11.768;2022-09-12T00:01:02;2.53;;;1.20;;
69542;SDS011;56762;49.494;11.768;2022-09-12T00:03:31;2.28;;;1.17;;
69542;SDS011;56762;49.494;11.768;2022-09-12T00:05:59;2.20;;;1.20;;
69542;SDS011;56762;49.494;11.768;2022-09-12T00:08:27;3.25;;;1.40;;
69542;SDS011;56762;49.494;11.768;2022-09-12T00:10:54;2.60;;;1.33;;
69542;SDS011;56762;49.494;11.768;2022-09-12T00:13:22;2.57;;;1.30;;
69542;SDS011;56762;49.494;11.768;2022-09-12T00:15:51;3.70;;;1.48;;
69542;SDS011;56762;49.494;11.768;2022-09-12T00:18:20;3.30;;;1.42;;
69542;SDS011;56762;49.494;11.768;2022-09-12T00:20:48;2.70;;;1.27;;
69542;SDS011;56762;49.494;11.768;2022-09-12T00:23:16;2.85;;;1.40;;
69542;SDS011;56762;49.494;11.768;2022-09-12T00:25:45;3.50;;;1.70;;
69542;SDS011;56762;49.494;11.768;2022-09-12T00:28:15;3.55;;;1.83;;
69542;SDS011;56762;49.494;11.768;2022-09-12T00:30:45;3.28;;;1.77;;
69542;SDS011;56762;49.494;11.768;2022-09-12T00:33:14;3.83;;;1.40;;
69542;SDS011;56762;49.494;11.768;2022-09-12T00:35:45;2.95;;;1.52;;
69542;SDS011;56762;49.494;11.768;2022-09-12T00:38:14;3.43;;;1.77;;
69542;SDS011;56762;49.494;11.768;2022-09-12T00:40:43;3.08;;;1.60;;
69542;SDS011;56762;49.494;11.768;2022-09-12T00:43:11;7.47;;;1.70;;
69542;SDS011;56762;49.494;11.768;2022-09-12T00:45:41;2.65;;;1.40;;
69542;SDS011;56762;49.494;11.768;2022-09-12T00:48:13;2.25;;;1.23;;
69542;SDS011;56762;49.494;11.768;2022-09-12T00:50:50;1.73;;;0.97;;
69542;SDS011;56762;49.494;11.768;2022-09-12T00:53:18;1.83;;;0.95;;
69542;SDS011;56762;49.494;11.768;2022-09-12T00:55:46;2.75;;;0.90;;
69542;SDS011;56762;49.494;11.768;2022-09-12T00:58:18;1.90;;;1.05;;
69542;SDS011;56762;49.494;11.768;2022-09-12T01:00:48;1.77;;;0.80;;
69542;SDS011;56762;49.494;11.768;2022-09-12T01:03:17;1.33;;;0.80;;
69542;SDS011;56762;49.494;11.768;2022-09-12T01:05:49;1.48;;;0.85;;
69542;SDS011;56762;49.494;11.768;2022-09-12T01:08:26;1.83;;;0.90;;
69542;SDS011;56762;49.494;11.768;2022-09-12T01:10:55;1.77;;;0.95;;
69542;SDS011;56762;49.494;11.768;2022-09-12T01:13:24;2.33;;;1.00;;
69542;SDS011;56762;49.494;11.768;2022-09-12T01:15:52;1.97;;;0.87;;
69542;SDS011;56762;49.494;11.768;2022-09-12T01:18:23;4.03;;;1.10;;
69542;SDS011;56762;49.494;11.768;2022-09-12T01:24:02;2.10;;;1.08;;
69542;SDS011;56762;49.494;11.768;2022-09-12T01:32:56;3.40;;;1.08;;
69542;SDS011;56762;49.494;11.768;2022-09-12T01:35:36;4.53;;;1.08;;
69542;SDS011;56762;49.494;11.768;2022-09-12T01:38:14;2.53;;;1.02;;
69542;SDS011;56762;49.494;11.768;2022-09-12T01:40:51;2.83;;;0.98;;
69542;SDS011;56762;49.494;11.768;2022-09-12T01:43:30;8.90;;;3.40;;
69542;SDS011;56762;49.494;11.768;2022-09-12T01:46:02;10.75;;;3.33;;
69542;SDS011;56762;49.494;11.768;2022-09-12T01:48:36;6.70;;;3.15;;
69542;SDS011;56762;49.494;11.768;2022-09-12T01:51:08;5.93;;;2.78;;
69542;SDS011;56762;49.494;11.768;2022-09-12T01:53:43;7.22;;;2.80;;
69542;SDS011;56762;49.494;11.768;2022-09-12T01:56:16;5.53;;;2.50;;
69542;SDS011;56762;49.494;11.768;2022-09-12T01:58:48;5.28;;;2.55;;
69542;SDS011;56762;49.494;11.768;2022-09-12T02:01:21;7.20;;;2.78;;
69542;SDS011;56762;49.494;11.768;2022-09-12T02:03:54;6.32;;;3.00;;
69542;SDS011;56762;49.494;11.768;2022-09-12T02:06:26;4.50;;;2.40;;
69542;SDS011;56762;49.494;11.768;2022-09-12T02:08:59;5.60;;;2.40;;
69542;SDS011;56762;49.494;11.768;2022-09-12T02:11:29;5.57;;;2.38;;
69542;SDS011;56762;49.494;11.768;2022-09-12T02:14:00;5.93;;;2.30;;
69542;SDS011;56762;49.494;11.768;2022-09-12T02:16:31;5.55;;;2.60;;
69542;SDS011;56762;49.494;11.768;2022-09-12T02:19:06;5.10;;;2.30;;
69542;SDS011;56762;49.494;11.768;2022-09-12T02:21:36;5.30;;;2.10;;
69542;SDS011;56762;49.494;11.768;2022-09-12T02:24:12;5.45;;;2.08;;
69542;SDS011;56762;49.494;11.768;2022-09-12T02:26:42;3.17;;;1.73;;
69542;SDS011;56762;49.494;11.768;2022-09-12T02:29:14;2.20;;;1.08;;
69542;SDS011;56762;49.494;11.768;2022-09-12T02:34:25;3.30;;;1.47;;
69542;SDS011;56762;49.494;11.768;2022-09-12T02:37:02;2.70;;;1.50;;
69542;SDS011;56762;49.494;11.768;2022-09-12T02:39:35;3.67;;;1.58;;
69542;SDS011;56762;49.494;11.768;2022-09-12T02:42:09;2.00;;;1.25;;
69542;SDS011;56762;49.494;11.768;2022-09-12T02:44:37;2.65;;;1.33;;
69542;SDS011;56762;49.494;11.768;2022-09-12T02:47:07;1.87;;;1.03;;
69542;SDS011;56762;49.494;11.768;2022-09-12T02:49:40;2.42;;;1.20;;
69542;SDS011;56762;49.494;11.768;2022-09-12T02:52:08;2.10;;;1.10;;
69542;SDS011;56762;49.494;11.768;2022-09-12T02:54:36;1.40;;;0.90;;
69542;SDS011;56762;49.494;11.768;2022-09-12T02:57:05;1.98;;;1.10;;
69542;SDS011;56762;49.494;11.768;2022-09-12T02:59:48;1.40;;;0.63;;
69542;SDS011;56762;49.494;11.768;2022-09-12T03:02:26;2.88;;;1.20;;
69542;SDS011;56762;49.494;11.768;2022-09-12T03:05:04;1.75;;;0.98;;
69542;SDS011;56762;49.494;11.768;2022-09-12T03:07:45;2.00;;;0.98;;
69542;SDS011;56762;49.494;11.768;2022-09-12T03:10:56;1.80;;;1.00;;
69542;SDS011;56762;49.494;11.768;2022-09-12T03:13:35;2.47;;;1.13;;
69542;SDS011;56762;49.494;11.768;2022-09-12T03:16:13;3.75;;;1.10;;
69542;SDS011;56762;49.494;11.768;2022-09-12T03:18:49;2.10;;;1.20;;
69542;SDS011;56762;49.494;11.768;2022-09-12T03:21:24;3.67;;;0.82;;
69542;SDS011;56762;49.494;11.768;2022-09-12T03:23:59;4.05;;;1.10;;
69542;SDS011;56762;49.494;11.768;2022-09-12T03:26:34;1.73;;;0.93;;
69542;SDS011;56762;49.494;11.768;2022-09-12T03:29:06;2.38;;;1.20;;
69542;SDS011;56762;49.494;11.768;2022-09-12T03:31:35;2.00;;;1.00;;
69542;SDS011;56762;49.494;11.768;2022-09-12T03:34:04;1.77;;;0.93;;
69542;SDS011;56762;49.494;11.768;2022-09-12T03:36:39;2.63;;;0.88;;
69542;SDS011;56762;49.494;11.768;2022-09-12T03:39:07;1.90;;;1.07;;
69542;SDS011;56762;49.494;11.768;2022-09-12T03:41:35;2.38;;;1.08;;
69542;SDS011;56762;49.494;11.768;2022-09-12T03:44:02;1.95;;;1.10;;
69542;SDS011;56762;49.494;11.768;2022-09-12T03:46:30;2.58;;;1.20;;
69542;SDS011;56762;49.494;11.768;2022-09-12T03:48:58;6.68;;;2.60;;
69542;SDS011;56762;49.494;11.768;2022-09-12T03:51:27;5.33;;;2.63;;
69542;SDS011;56762;49.494;11.768;2022-09-12T03:53:56;5.65;;;2.58;;
69542;SDS011;56762;49.494;11.768;2022-09-12T03:56:24;5.32;;;2.65;;
69542;SDS011;56762;49.494;11.768;2022-09-12T03:58:52;5.75;;;3.17;;
69542;SDS011;56762;49.494;11.768;2022-09-12T04:01:20;6.60;;;3.15;;
69542;SDS011;56762;49.494;11.768;2022-09-12T04:03:49;9.07;;;3.20;;
69542;SDS011;56762;49.494;11.768;2022-09-12T04:06:23;9.73;;;2.80;;
69542;SDS011;56762;49.494;11.768;2022-09-12T04:08:51;8.40;;;3.28;;
69542;SDS011;56762;49.494;11.768;2022-09-12T04:11:22;12.45;;;5.30;;
69542;SDS011;56762;49.494;11.768;2022-09-12T04:13:50;7.88;;;3.70;;
69542;SDS011;56762;49.494;11.768;2022-09-12T04:16:17;4.50;;;2.27;;
69542;SDS011;56762;49.494;11.768;2022-09-12T04:18:46;4.55;;;1.75;;
69542;SDS011;56762;49.494;11.768;2022-09-12T04:21:14;7.63;;;1.70;;
69542;SDS011;56762;49.494;11.768;2022-09-12T04:23:46;5.10;;;1.63;;
69542;SDS011;56762;49.494;11.768;2022-09-12T04:26:16;3.70;;;1.40;;
69542;SDS011;56762;49.494;11.768;2022-09-12T04:28:51;3.50;;;1.60;;
69542;SDS011;56762;49.494;11.768;2022-09-12T04:31:23;1.95;;;0.90;;
69542;SDS011;56762;49.494;11.768;2022-09-12T04:33:52;2.00;;;1.00;;
69542;SDS011;56762;49.494;11.768;2022-09-12T04:36:21;2.50;;;1.30;;
69542;SDS011;56762;49.494;11.768;2022-09-12T04:38:49;2.10;;;1.00;;
69542;SDS011;56762;49.494;11.768;2022-09-12T04:41:19;2.50;;;1.40;;
69542;SDS011;56762;49.494;11.768;2022-09-12T04:43:52;2.33;;;1.30;;
69542;SDS011;56762;49.494;11.768;2022-09-12T04:46:21;3.33;;;1.20;;
69542;SDS011;56762;49.494;11.768;2022-09-12T04:48:48;2.70;;;1.40;;
69542;SDS011;56762;49.494;11.768;2022-09-12T04:51:22;1.90;;;0.90;;
69542;SDS011;56762;49.494;11.768;2022-09-12T04:53:54;3.17;;;1.40;;
69542;SDS011;56762;49.494;11.768;2022-09-12T04:56:23;2.47;;;1.25;;
69542;SDS011;56762;49.494;11.768;2022-09-12T04:58:55;2.97;;;1.40;;
69542;SDS011;56762;49.494;11.768;2022-09-12T05:01:23;2.95;;;1.48;;
69542;SDS011;56762;49.494;11.768;2022-09-12T05:03:51;2.65;;;1.10;;
69542;SDS011;56762;49.494;11.768;2022-09-12T05:06:19;4.23;;;1.37;;
69542;SDS011;56762;49.494;11.768;2022-09-12T05:08:48;7.68;;;4.18;;
69542;SDS011;56762;49.494;11.768;2022-09-12T05:11:17;8.85;;;3.83;;
69542;SDS011;56762;49.494;11.768;2022-09-12T05:13:51;9.82;;;4.35;;
69542;SDS011;56762;49.494;11.768;2022-09-12T05:16:21;22.73;;;7.70;;
69542;SDS011;56762;49.494;11.768;2022-09-12T05:18:50;24.80;;;10.00;;
69542;SDS011;56762;49.494;11.768;2022-09-12T05:21:19;15.43;;;5.85;;
69542;SDS011;56762;49.494;11.768;2022-09-12T05:23:49;7.82;;;2.72;;
69542;SDS011;56762;49.494;11.768;2022-09-12T05:26:18;10.77;;;4.32;;
69542;SDS011;56762;49.494;11.768;2022-09-12T05:28:46;10.27;;;3.78;;
69542;SDS011;56762;49.494;11.768;2022-09-12T05:31:16;13.10;;;4.13;;
69542;SDS011;56762;49.494;11.768;2022-09-12T05:33:46;13.40;;;5.30;;
69542;SDS011;56762;49.494;11.768;2022-09-12T05:36:17;26.63;;;8.80;;
69542;SDS011;56762;49.494;11.768;2022-09-12T05:38:46;14.82;;;6.22;;
69542;SDS011;56762;49.494;11.768;2022-09-12T05:41:14;9.30;;;4.50;;
69542;SDS011;56762;49.494;11.768;2022-09-12T05:43:50;7.20;;;3.83;;
69542;SDS011;56762;49.494;11.768;2022-09-12T05:46:20;5.65;;;2.72;;
69542;SDS011;56762;49.494;11.768;2022-09-12T05:48:50;5.00;;;2.30;;
69542;SDS011;56762;49.494;11.768;2022-09-12T05:51:22;4.07;;;1.40;;
69542;SDS011;56762;49.494;11.768;2022-09-12T05:53:53;3.20;;;1.70;;
69542;SDS011;56762;49.494;11.768;2022-09-12T05:56:22;5.27;;;1.50;;
69542;SDS011;56762;49.494;11.768;2022-09-12T05:58:52;9.98;;;3.47;;
69542;SDS011;56762;49.494;11.768;2022-09-12T06:01:21;15.57;;;6.60;;
69542;SDS011;56762;49.494;11.768;2022-09-12T06:03:52;13.70;;;5.95;;
69542;SDS011;56762;49.494;11.768;2022-09-12T06:06:21;11.23;;;4.78;;
69542;SDS011;56762;49.494;11.768;2022-09-12T06:08:51;9.87;;;4.17;;
69542;SDS011;56762;49.494;11.768;2022-09-12T06:11:20;8.40;;;3.70;;
69542;SDS011;56762;49.494;11.768;2022-09-12T06:13:50;4.78;;;2.45;;
69542;SDS011;56762;49.494;11.768;2022-09-12T06:16:18;9.77;;;2.30;;
69542;SDS011;56762;49.494;11.768;2022-09-12T06:18:48;4.25;;;2.03;;
69542;SDS011;56762;49.494;11.768;2022-09-12T06:21:18;4.90;;;2.40;;
69542;SDS011;56762;49.494;11.768;2022-09-12T06:23:48;8.30;;;3.70;;
69542;SDS011;56762;49.494;11.768;2022-09-12T06:26:17;5.97;;;2.58;;
69542;SDS011;56762;49.494;11.768;2022-09-12T06:28:49;3.97;;;1.63;;
69542;SDS011;56762;49.494;11.768;2022-09-12T06:31:19;4.97;;;2.10;;
69542;SDS011;56762;49.494;11.768;2022-09-12T06:33:48;4.60;;;2.20;;
69542;SDS011;56762;49.494;11.768;2022-09-12T06:36:19;5.63;;;2.67;;
69542;SDS011;56762;49.494;11.768;2022-09-12T06:38:52;5.28;;;2.78;;
69542;SDS011;56762;49.494;11.768;2022-09-12T06:41:21;8.82;;;3.90;;
69542;SDS011;56762;49.494;11.768;2022-09-12T06:43:50;8.75;;;4.03;;
69542;SDS011;56762;49.494;11.768;2022-09-12T06:46:18;17.77;;;7.00;;
69542;SDS011;56762;49.494;11.768;2022-09-12T06:48:46;11.98;;;5.30;;
69542;SDS011;56762;49.494;11.768;2022-09-12T06:51:15;14.82;;;5.38;;
69542;SDS011;56762;49.494;11.768;2022-09-12T06:53:46;12.00;;;4.80;;
69542;SDS011;56762;49.494;11.768;2022-09-12T06:56:15;10.32;;;5.07;;
69542;SDS011;56762;49.494;11.768;2022-09-12T06:58:45;15.17;;;6.27;;
69542;SDS011;56762;49.494;11.768;2022-09-12T07:01:14;15.65;;;6.57;;
69542;SDS011;56762;49.494;11.768;2022-09-12T07:03:45;10.98;;;5.45;;
69542;SDS011;56762;49.494;11.768;2022-09-12T07:06:15;10.95;;;5.65;;
69542;SDS011;56762;49.494;11.768;2022-09-12T07:08:44;8.48;;;4.00;;
69542;SDS011;56762;49.494;11.768;2022-09-12T07:11:15;8.40;;;4.47;;
69542;SDS011;56762;49.494;11.768;2022-09-12T07:13:46;15.13;;;6.25;;
69542;SDS011;56762;49.494;11.768;2022-09-12T07:16:15;17.05;;;7.85;;
69542;SDS011;56762;49.494;11.768;2022-09-12T07:18:48;17.10;;;8.48;;
69542;SDS011;56762;49.494;11.768;2022-09-12T07:21:17;20.70;;;9.25;;
69542;SDS011;56762;49.494;11.768;2022-09-12T07:23:47;13.83;;;6.53;;
69542;SDS011;56762;49.494;11.768;2022-09-12T07:26:17;12.20;;;5.43;;
69542;SDS011;56762;49.494;11.768;2022-09-12T07:28:49;12.90;;;6.25;;
69542;SDS011;56762;49.494;11.768;2022-09-12T07:31:17;9.63;;;5.50;;
69542;SDS011;56762;49.494;11.768;2022-09-12T07:33:46;9.07;;;4.50;;
69542;SDS011;56762;49.494;11.768;2022-09-12T07:36:20;11.73;;;5.47;;
69542;SDS011;56762;49.494;11.768;2022-09-12T07:38:55;11.13;;;4.82;;
69542;SDS011;56762;49.494;11.768;2022-09-12T07:41:24;8.57;;;4.57;;
69542;SDS011;56762;49.494;11.768;2022-09-12T07:43:53;9.32;;;4.50;;
69542;SDS011;56762;49.494;11.768;2022-09-12T07:46:22;9.43;;;4.30;;
69542;SDS011;56762;49.494;11.768;2022-09-12T07:48:52;14.43;;;7.07;;
69542;SDS011;56762;49.494;11.768;2022-09-12T07:51:21;9.75;;;4.97;;
69542;SDS011;56762;49.494;11.768;2022-09-12T07:53:50;9.90;;;5.25;;
69542;SDS011;56762;49.494;11.768;2022-09-12T07:56:19;11.93;;;5.72;;
69542;SDS011;56762;49.494;11.768;2022-09-12T07:58:54;14.38;;;6.78;;
69542;SDS011;56762;49.494;11.768;2022-09-12T08:01:22;10.07;;;5.63;;
69542;SDS011;56762;49.494;11.768;2022-09-12T08:03:52;12.35;;;5.88;;
69542;SDS011;56762;49.494;11.768;2022-09-12T08:06:21;13.23;;;6.30;;
69542;SDS011;56762;49.494;11.768;2022-09-12T08:08:50;16.73;;;7.03;;
69542;SDS011;56762;49.494;11.768;2022-09-12T08:11:21;11.95;;;5.82;;
69542;SDS011;56762;49.494;11.768;2022-09-12T08:13:50;14.57;;;7.73;;
69542;SDS011;56762;49.494;11.768;2022-09-12T08:16:21;19.15;;;7.70;;
69542;SDS011;56762;49.494;11.768;2022-09-12T08:18:51;13.55;;;6.75;;
69542;SDS011;56762;49.494;11.768;2022-09-12T08:21:19;8.90;;;4.63;;
69542;SDS011;56762;49.494;11.768;2022-09-12T08:23:50;7.97;;;4.20;;
69542;SDS011;56762;49.494;11.768;2022-09-12T08:26:21;10.67;;;4.90;;
69542;SDS011;56762;49.494;11.768;2022-09-12T08:28:49;12.07;;;5.97;;
69542;SDS011;56762;49.494;11.768;2022-09-12T08:31:19;12.45;;;7.20;;
69542;SDS011;56762;49.494;11.768;2022-09-12T08:33:48;10.18;;;5.35;;
69542;SDS011;56762;49.494;11.768;2022-09-12T08:36:17;9.18;;;4.85;;
69542;SDS011;56762;49.494;11.768;2022-09-12T08:38:47;8.03;;;4.70;;
69542;SDS011;56762;49.494;11.768;2022-09-12T08:41:22;9.88;;;5.13;;
69542;SDS011;56762;49.494;11.768;2022-09-12T08:43:59;9.73;;;5.13;;
69542;SDS011;56762;49.494;11.768;2022-09-12T08:46:37;7.93;;;4.38;;
69542;SDS011;56762;49.494;11.768;2022-09-12T08:49:14;9.02;;;5.57;;
69542;SDS011;56762;49.494;11.768;2022-09-12T08:51:50;8.90;;;5.27;;
69542;SDS011;56762;49.494;11.768;2022-09-12T08:54:20;9.73;;;5.07;;
69542;SDS011;56762;49.494;11.768;2022-09-12T08:56:54;9.60;;;4.75;;
69542;SDS011;56762;49.494;11.768;2022-09-12T08:59:25;7.07;;;4.15;;
69542;SDS011;56762;49.494;11.768;2022-09-12T09:01:53;10.68;;;5.18;;
69542;SDS011;56762;49.494;11.768;2022-09-12T09:04:35;9.03;;;5.40;;
69542;SDS011;56762;49.494;11.768;2022-09-12T09:07:25;10.15;;;5.70;;
69542;SDS011;56762;49.494;11.768;2022-09-12T09:10:03;7.68;;;4.57;;
69542;SDS011;56762;49.494;11.768;2022-09-12T09:12:42;8.98;;;5.47;;
69542;SDS011;56762;49.494;11.768;2022-09-12T09:15:25;10.20;;;6.05;;
69542;SDS011;56762;49.494;11.768;2022-09-12T09:18:09;12.87;;;7.20;;
69542;SDS011;56762;49.494;11.768;2022-09-12T09:20:43;11.07;;;6.70;;
69542;SDS011;56762;49.494;11.768;2022-09-12T09:23:15;11.50;;;6.90;;
69542;SDS011;56762;49.494;11.768;2022-09-12T09:25:50;11.30;;;6.20;;
69542;SDS011;56762;49.494;11.768;2022-09-12T09:28:24;9.10;;;5.57;;
69542;SDS011;56762;49.494;11.768;2022-09-12T09:30:56;12.43;;;7.03;;
69542;SDS011;56762;49.494;11.768;2022-09-12T09:33:25;13.68;;;7.43;;
69542;SDS011;56762;49.494;11.768;2022-09-12T09:35:58;11.82;;;6.25;;
69542;SDS011;56762;49.494;11.768;2022-09-12T09:38:33;11.32;;;7.03;;
69542;SDS011;56762;49.494;11.768;2022-09-12T09:41:12;12.55;;;7.03;;
69542;SDS011;56762;49.494;11.768;2022-09-12T09:44:01;10.63;;;5.93;;
69542;SDS011;56762;49.494;11.768;2022-09-12T09:46:29;13.10;;;6.93;;
69542;SDS011;56762;49.494;11.768;2022-09-12T09:48:58;11.73;;;6.72;;
69542;SDS011;56762;49.494;11.768;2022-09-12T09:51:32;11.57;;;6.97;;
69542;SDS011;56762;49.494;11.768;2022-09-12T09:54:02;14.15;;;7.85;;
69542;SDS011;56762;49.494;11.768;2022-09-12T09:56:40;21.67;;;10.90;;
69542;SDS011;56762;49.494;11.768;2022-09-12T09:59:10;16.67;;;10.40;;
69542;SDS011;56762;49.494;11.768;2022-09-12T10:01:42;16.33;;;9.15;;
69542;SDS011;56762;49.494;11.768;2022-09-12T10:04:19;14.93;;;9.27;;
69542;SDS011;56762;49.494;11.768;2022-09-12T10:06:52;18.80;;;10.82;;
69542;SDS011;56762;49.494;11.768;2022-09-12T10:09:24;14.00;;;9.40;;
69542;SDS011;56762;49.494;11.768;2022-09-12T10:11:53;11.48;;;7.30;;
69542;SDS011;56762;49.494;11.768;2022-09-12T10:14:28;13.80;;;8.85;;
69542;SDS011;56762;49.494;11.768;2022-09-12T10:17:23;13.10;;;8.50;;
69542;SDS011;56762;49.494;11.768;2022-09-12T10:19:59;12.45;;;7.15;;
69542;SDS011;56762;49.494;11.768;2022-09-12T10:22:47;13.27;;;7.20;;
69542;SDS011;56762;49.494;11.768;2022-09-12T10:25:16;12.63;;;8.38;;
69542;SDS011;56762;49.494;11.768;2022-09-12T10:27:50;13.52;;;8.02;;
69542;SDS011;56762;49.494;11.768;2022-09-12T10:30:22;12.13;;;7.55;;
69542;SDS011;56762;49.494;11.768;2022-09-12T10:32:55;11.85;;;6.85;;
69542;SDS011;56762;49.494;11.768;2022-09-12T10:35:30;8.20;;;4.97;;
69542;SDS011;56762;49.494;11.768;2022-09-12T10:38:11;10.55;;;6.60;;
69542;SDS011;56762;49.494;11.768;2022-09-12T10:40:44;9.73;;;6.20;;
69542;SDS011;56762;49.494;11.768;2022-09-12T10:43:15;10.52;;;5.82;;
69542;SDS011;56762;49.494;11.768;2022-09-12T10:45:46;10.48;;;5.97;;
69542;SDS011;56762;49.494;11.768;2022-09-12T10:48:21;8.27;;;4.60;;
69542;SDS011;56762;49.494;11.768;2022-09-12T10:50:53;7.47;;;4.80;;
69542;SDS011;56762;49.494;11.768;2022-09-12T10:53:22;10.15;;;6.07;;
69542;SDS011;56762;49.494;11.768;2022-09-12T10:56:05;13.25;;;5.10;;
69542;SDS011;56762;49.494;11.768;2022-09-12T10:58:41;6.78;;;4.30;;
69542;SDS011;56762;49.494;11.768;2022-09-12T11:01:26;6.90;;;4.67;;
69542;SDS011;56762;49.494;11.768;2022-09-12T11:04:05;7.43;;;3.78;;
69542;SDS011;56762;49.494;11.768;2022-09-12T11:09:49;7.55;;;4.20;;
69542;SDS011;56762;49.494;11.768;2022-09-12T11:12:23;9.60;;;5.25;;
69542;SDS011;56762;49.494;11.768;2022-09-12T11:15:02;9.57;;;6.03;;
69542;SDS011;56762;49.494;11.768;2022-09-12T11:17:48;7.32;;;4.57;;
69542;SDS011;56762;49.494;11.768;2022-09-12T11:23:22;6.60;;;3.85;;
69542;SDS011;56762;49.494;11.768;2022-09-12T11:26:06;4.47;;;2.20;;
69542;SDS011;56762;49.494;11.768;2022-09-12T11:28:46;5.50;;;2.60;;
69542;SDS011;56762;49.494;11.768;2022-09-12T11:31:38;4.43;;;2.97;;
69542;SDS011;56762;49.494;11.768;2022-09-12T11:34:19;4.75;;;2.55;;
69542;SDS011;56762;49.494;11.768;2022-09-12T11:37:01;7.22;;;2.90;;
69542;SDS011;56762;49.494;11.768;2022-09-12T11:39:44;3.92;;;2.45;;
69542;SDS011;56762;49.494;11.768;2022-09-12T11:42:22;3.80;;;2.30;;
69542;SDS011;56762;49.494;11.768;2022-09-12T11:44:57;4.63;;;2.25;;
69542;SDS011;56762;49.494;11.768;2022-09-12T11:47:29;6.32;;;2.33;;
69542;SDS011;56762;49.494;11.768;2022-09-12T11:50:02;4.70;;;3.00;;
69542;SDS011;56762;49.494;11.768;2022-09-12T11:52:41;5.25;;;2.90;;
69542;SDS011;56762;49.494;11.768;2022-09-12T11:55:10;5.43;;;2.70;;
69542;SDS011;56762;49.494;11.768;2022-09-12T11:57:44;3.65;;;2.10;;
69542;SDS011;56762;49.494;11.768;2022-09-12T12:00:17;4.88;;;2.20;;
69542;SDS011;56762;49.494;11.768;2022-09-12T12:02:48;3.65;;;2.15;;
69542;SDS011;56762;49.494;11.768;2022-09-12T12:05:24;5.07;;;2.50;;
69542;SDS011;56762;49.494;11.768;2022-09-12T12:07:56;4.07;;;2.37;;
69542;SDS011;56762;49.494;11.768;2022-09-12T12:10:31;3.42;;;1.90;;
69542;SDS011;56762;49.494;11.768;2022-09-12T12:13:03;5.35;;;2.28;;
69542;SDS011;56762;49.494;11.768;2022-09-12T12:15:39;4.43;;;2.22;;
69542;SDS011;56762;49.494;11.768;2022-09-12T12:18:14;2.75;;;1.50;;
69542;SDS011;56762;49.494;11.768;2022-09-12T12:20:46;3.43;;;1.83;;
69542;SDS011;56762;49.494;11.768;2022-09-12T12:23:25;3.47;;;1.80;;
69542;SDS011;56762;49.494;11.768;2022-09-12T12:25:55;3.33;;;1.83;;
69542;SDS011;56762;49.494;11.768;2022-09-12T12:31:26;2.80;;;1.20;;
69542;SDS011;56762;49.494;11.768;2022-09-12T12:34:00;4.10;;;1.57;;
69542;SDS011;56762;49.494;11.768;2022-09-12T12:36:48;3.42;;;1.70;;
69542;SDS011;56762;49.494;11.768;2022-09-12T12:46:05;4.03;;;2.00;;
69542;SDS011;56762;49.494;11.768;2022-09-12T12:54:33;3.10;;;1.75;;
69542;SDS011;56762;49.494;11.768;2022-09-12T12:57:18;4.03;;;2.35;;
69542;SDS011;56762;49.494;11.768;2022-09-12T12:59:53;3.30;;;1.70;;
69542;SDS011;56762;49.494;11.768;2022-09-12T13:02:24;2.93;;;1.80;;
69542;SDS011;56762;49.494;11.768;2022-09-12T13:04:57;3.17;;;1.90;;
69542;SDS011;56762;49.494;11.768;2022-09-12T13:07:30;3.20;;;1.70;;
69542;SDS011;56762;49.494;11.768;2022-09-12T13:10:00;4.30;;;2.22;;
69542;SDS011;56762;49.494;11.768;2022-09-12T13:12:29;4.45;;;2.30;;
69542;SDS011;56762;49.494;11.768;2022-09-12T13:14:59;3.83;;;1.90;;
69542;SDS011;56762;49.494;11.768;2022-09-12T13:17:29;3.53;;;1.90;;
69542;SDS011;56762;49.494;11.768;2022-09-12T13:20:01;3.53;;;1.90;;
69542;SDS011;56762;49.494;11.768;2022-09-12T13:22:55;3.30;;;1.90;;
69542;SDS011;56762;49.494;11.768;2022-09-12T13:25:25;5.05;;;2.67;;
69542;SDS011;56762;49.494;11.768;2022-09-12T13:27:56;3.80;;;1.70;;
69542;SDS011;56762;49.494;11.768;2022-09-12T13:30:29;5.18;;;1.80;;
69542;SDS011;56762;49.494;11.768;2022-09-12T13:33:03;3.42;;;1.95;;
69542;SDS011;56762;49.494;11.768;2022-09-12T13:35:48;3.53;;;1.90;;
69542;SDS011;56762;49.494;11.768;2022-09-12T13:38:48;3.72;;;1.75;;
69542;SDS011;56762;49.494;11.768;2022-09-12T13:41:43;2.93;;;1.60;;
69542;SDS011;56762;49.494;11.768;2022-09-12T13:44:45;3.20;;;1.50;;
69542;SDS011;56762;49.494;11.768;2022-09-12T13:47:19;2.80;;;1.50;;
69542;SDS011;56762;49.494;11.768;2022-09-12T13:49:51;3.65;;;1.73;;
69542;SDS011;56762;49.494;11.768;2022-09-12T13:52:20;3.28;;;1.88;;
69542;SDS011;56762;49.494;11.768;2022-09-12T13:54:53;2.83;;;1.50;;
69542;SDS011;56762;49.494;11.768;2022-09-12T13:57:27;3.05;;;1.60;;
69542;SDS011;56762;49.494;11.768;2022-09-12T13:59:57;2.78;;;1.60;;
69542;SDS011;56762;49.494;11.768;2022-09-12T14:02:27;2.47;;;1.42;;
69542;SDS011;56762;49.494;11.768;2022-09-12T14:04:56;2.97;;;1.70;;
69542;SDS011;56762;49.494;11.768;2022-09-12T14:07:41;3.90;;;1.90;;
69542;SDS011;56762;49.494;11.768;2022-09-12T14:10:23;2.72;;;1.60;;
69542;SDS011;56762;49.494;11.768;2022-09-12T14:12:55;2.67;;;1.50;;
69542;SDS011;56762;49.494;11.768;2022-09-12T14:15:25;4.93;;;1.58;;
69542;SDS011;56762;49.494;11.768;2022-09-12T14:17:55;3.47;;;1.50;;
69542;SDS011;56762;49.494;11.768;2022-09-12T14:20:27;3.27;;;1.70;;
69542;SDS011;56762;49.494;11.768;2022-09-12T14:22:58;2.95;;;1.60;;
69542;SDS011;56762;49.494;11.768;2022-09-12T14:25:31;3.30;;;1.80;;
69542;SDS011;56762;49.494;11.768;2022-09-12T14:28:04;3.05;;;1.70;;
69542;SDS011;56762;49.494;11.768;2022-09-12T14:30:33;2.75;;;1.55;;
69542;SDS011;56762;49.494;11.768;2022-09-12T14:33:03;2.90;;;1.43;;
69542;SDS011;56762;49.494;11.768;2022-09-12T14:35:43;3.33;;;1.92;;
69542;SDS011;56762;49.494;11.768;2022-09-12T14:38:13;3.85;;;1.73;;
69542;SDS011;56762;49.494;11.768;2022-09-12T14:40:51;2.13;;;1.40;;
69542;SDS011;56762;49.494;11.768;2022-09-12T14:43:26;2.88;;;1.52;;
69542;SDS011;56762;49.494;11.768;2022-09-12T14:45:56;2.50;;;1.50;;
69542;SDS011;56762;49.494;11.768;2022-09-12T14:48:25;2.80;;;1.77;;
69542;SDS011;56762;49.494;11.768;2022-09-12T14:50:57;3.58;;;1.67;;
69542;SDS011;56762;49.494;11.768;2022-09-12T14:53:30;2.50;;;1.65;;
69542;SDS011;56762;49.494;11.768;2022-09-12T14:56:05;3.88;;;1.98;;
69542;SDS011;56762;49.494;11.768;2022-09-12T14:58:35;4.70;;;1.90;;
69542;SDS011;56762;49.494;11.768;2022-09-12T15:03:52;3.35;;;1.80;;
69542;SDS011;56762;49.494;11.768;2022-09-12T15:06:23;3.35;;;1.80;;
69542;SDS011;56762;49.494;11.768;2022-09-12T15:08:54;3.05;;;1.67;;
69542;SDS011;56762;49.494;11.768;2022-09-12T15:11:25;3.47;;;1.90;;
69542;SDS011;56762;49.494;11.768;2022-09-12T15:13:52;3.05;;;1.50;;
69542;SDS011;56762;49.494;11.768;2022-09-12T15:16:20;2.35;;;1.50;;
69542;SDS011;56762;49.494;11.768;2022-09-12T15:18:48;3.45;;;1.67;;
69542;SDS011;56762;49.494;11.768;2022-09-12T15:21:17;2.53;;;1.52;;
69542;SDS011;56762;49.494;11.768;2022-09-12T15:23:47;3.03;;;1.97;;
69542;SDS011;56762;49.494;11.768;2022-09-12T15:26:16;2.50;;;1.75;;
69542;SDS011;56762;49.494;11.768;2022-09-12T15:28:46;2.53;;;1.45;;
69542;SDS011;56762;49.494;11.768;2022-09-12T15:31:15;2.50;;;1.48;;
69542;SDS011;56762;49.494;11.768;2022-09-12T15:33:50;3.25;;;1.73;;
69542;SDS011;56762;49.494;11.768;2022-09-12T15:36:19;3.67;;;1.80;;
69542;SDS011;56762;49.494;11.768;2022-09-12T15:38:48;3.38;;;1.70;;